createdAt,value
2023-04-01T00:19:07.084Z,976.80
2023-04-01T00:42:07.694Z,976.74
2023-04-01T00:43:38.547Z,976.73
2023-04-01T00:44:04.521Z,976.80
2023-04-01T00:48:57.682Z,976.83
2023-04-01T00:58:33.880Z,976.76
2023-04-01T00:59:35.858Z,976.64
2023-04-01T01:00:36.156Z,976.65
2023-04-01T01:01:36.378Z,976.64
2023-04-01T01:06:55.985Z,976.66
2023-04-01T01:12:07.231Z,976.61
2023-04-01T01:13:08.993Z,976.67
2023-04-01T01:14:09.187Z,976.64
2023-04-01T01:15:09.361Z,976.73
2023-04-01T01:16:09.303Z,976.63
2023-04-01T01:17:10.648Z,976.61
2023-04-01T01:18:09.430Z,976.60
2023-04-01T11:46:53.594Z,978.04
2023-04-01T11:47:54.584Z,978.09
2023-04-01T12:17:53.820Z,978.44
2023-04-01T12:18:55.465Z,978.52
2023-04-01T12:28:26.329Z,978.58
2023-04-01T12:29:27.836Z,978.54
2023-04-01T12:30:27.632Z,978.53
2023-04-01T12:31:27.491Z,978.54
2023-04-01T12:32:28.209Z,978.52
2023-04-01T12:33:27.615Z,978.56
2023-04-01T12:34:28.007Z,978.53
2023-04-01T12:35:27.616Z,978.56
2023-04-01T12:36:27.782Z,978.47
2023-04-01T12:37:27.933Z,978.53
2023-04-01T12:38:27.749Z,978.52
2023-04-01T12:39:27.839Z,978.49
2023-04-01T12:40:27.671Z,978.51
2023-04-01T12:41:27.295Z,978.57
2023-04-01T12:42:27.496Z,978.51
2023-04-01T12:43:27.690Z,978.51
2023-04-01T12:44:28.019Z,978.57
2023-04-01T12:45:27.368Z,978.60
2023-04-01T12:46:27.998Z,978.60
2023-04-01T12:47:27.932Z,978.55
2023-04-01T12:48:28.213Z,978.47
2023-04-01T12:49:28.585Z,978.52
2023-04-01T12:50:27.546Z,978.64
2023-04-01T12:51:27.764Z,978.59
2023-04-01T12:52:28.058Z,978.61
2023-04-01T12:53:27.482Z,978.58
2023-04-01T12:54:27.322Z,978.63
2023-04-01T12:55:27.439Z,978.57
2023-04-01T12:56:27.868Z,978.55
2023-04-01T12:57:27.967Z,978.63
2023-04-01T12:58:27.763Z,978.58
2023-04-01T12:59:27.721Z,978.66
2023-04-01T13:00:27.298Z,978.62
2023-04-01T13:01:27.384Z,978.65
2023-04-01T13:02:27.321Z,978.70
2023-04-01T13:03:27.537Z,978.67
2023-04-01T13:04:27.454Z,978.73
2023-04-01T13:05:27.883Z,978.67
2023-04-01T13:06:27.610Z,978.65
2023-04-01T13:07:27.902Z,978.69
2023-04-01T13:08:27.801Z,978.78
2023-04-01T13:09:27.778Z,978.64
2023-04-01T13:10:27.645Z,978.79
2023-04-01T13:11:27.656Z,978.72
2023-04-01T13:12:27.334Z,978.82
2023-04-01T13:13:27.862Z,978.72
2023-04-01T13:14:31.923Z,978.75
2023-04-01T13:15:29.689Z,978.81
2023-04-01T13:16:27.287Z,978.80
2023-04-01T13:17:27.272Z,978.79
2023-04-01T13:18:27.824Z,978.76
2023-04-01T13:19:27.775Z,978.78
2023-04-01T13:20:27.305Z,978.84
2023-04-01T13:21:27.215Z,978.83
2023-04-01T13:22:27.852Z,978.83
2023-04-01T13:23:27.260Z,978.80
2023-04-01T13:24:27.733Z,978.77
2023-04-01T13:25:27.203Z,978.85
2023-04-01T13:26:27.063Z,978.83
2023-04-01T13:27:27.546Z,978.81
2023-04-01T13:28:27.751Z,978.83
2023-04-01T13:29:27.509Z,978.79
2023-04-01T13:30:27.687Z,978.85
2023-04-01T13:31:27.405Z,978.81
2023-04-01T13:32:40.848Z,978.82
2023-04-01T13:33:30.049Z,978.80
2023-04-01T13:34:27.176Z,978.81
2023-04-01T13:35:27.564Z,978.84
2023-04-01T13:36:27.254Z,978.81
2023-04-01T13:37:27.726Z,978.91
2023-04-01T13:38:27.466Z,978.80
2023-04-01T13:39:27.557Z,978.82
2023-04-01T13:40:27.583Z,978.83
2023-04-01T13:41:27.633Z,978.79
2023-04-01T13:42:27.834Z,978.82
2023-04-01T13:43:27.289Z,978.81
2023-04-01T13:44:28.027Z,978.96
2023-04-01T13:45:27.349Z,978.90
2023-04-01T13:46:27.193Z,978.91
2023-04-01T13:47:27.489Z,978.98
2023-04-01T13:48:27.079Z,978.99
2023-04-01T13:49:27.124Z,978.96
2023-04-01T13:50:27.186Z,978.85
2023-04-01T13:51:27.838Z,978.82
2023-04-01T13:52:27.653Z,978.93
2023-04-01T13:53:26.996Z,978.92
2023-04-01T13:54:27.046Z,978.87
2023-04-01T13:55:27.403Z,978.85
2023-04-01T13:56:27.150Z,978.95
2023-04-01T13:57:27.129Z,978.81
2023-04-01T13:58:27.222Z,978.92
2023-04-01T13:59:27.456Z,978.86
2023-04-01T14:00:27.412Z,978.85
2023-04-01T14:01:27.043Z,978.90
2023-04-01T14:02:27.204Z,978.94
2023-04-01T14:03:26.947Z,978.84
2023-04-01T14:04:28.015Z,978.84
2023-04-01T14:05:39.888Z,978.80
2023-04-01T14:06:29.003Z,978.87
2023-04-01T14:07:26.840Z,978.91
2023-04-01T14:08:27.087Z,978.95
2023-04-01T14:09:27.595Z,978.97
2023-04-01T14:10:27.198Z,978.99
2023-04-01T14:11:27.528Z,978.95
2023-04-01T14:12:26.933Z,978.83
2023-04-01T14:13:27.153Z,979.01
2023-04-01T14:14:26.839Z,978.95
2023-04-01T14:15:26.815Z,979.02
2023-04-01T14:16:26.858Z,978.98
2023-04-01T14:17:26.926Z,978.95
2023-04-01T14:18:27.068Z,978.97
2023-04-01T14:19:26.904Z,979.01
2023-04-01T14:20:27.575Z,979.00
2023-04-01T14:21:26.993Z,978.95
2023-04-01T14:22:26.929Z,979.02
2023-04-01T14:23:26.711Z,979.00
2023-04-01T14:24:26.720Z,979.00
2023-04-01T14:25:26.733Z,978.98
2023-04-01T14:26:26.635Z,979.06
2023-04-01T14:27:27.050Z,979.04
2023-04-01T14:28:27.356Z,979.10
2023-04-01T14:29:26.788Z,979.03
2023-04-01T14:30:26.752Z,979.04
2023-04-01T14:31:26.813Z,979.10
2023-04-01T14:32:26.771Z,979.08
2023-04-01T14:33:26.968Z,979.15
2023-04-01T14:34:26.826Z,979.15
2023-04-01T14:35:26.820Z,979.11
2023-04-01T14:36:26.663Z,979.11
2023-04-01T14:37:27.703Z,979.20
2023-04-01T14:38:27.014Z,979.12
2023-04-01T14:39:26.516Z,979.24
2023-04-01T14:40:26.539Z,979.11
2023-04-01T14:41:26.744Z,979.19
2023-04-01T14:42:26.778Z,979.17
2023-04-01T14:43:26.649Z,979.21
2023-04-01T14:44:26.633Z,979.27
2023-04-01T14:45:27.024Z,979.27
2023-04-01T14:46:26.895Z,979.29
2023-04-01T14:47:26.997Z,979.33
2023-04-01T14:48:27.306Z,979.23
2023-04-01T14:49:27.532Z,979.28
2023-04-01T14:50:26.737Z,979.29
2023-04-01T14:51:26.643Z,979.35
2023-04-01T14:52:26.611Z,979.32
2023-04-01T14:53:26.694Z,979.34
2023-04-01T14:54:26.733Z,979.41
2023-04-01T14:55:27.124Z,979.38
2023-04-01T14:56:26.926Z,979.37
2023-04-01T14:57:26.688Z,979.39
2023-04-01T14:58:26.624Z,979.42
2023-04-01T14:59:26.674Z,979.39
2023-04-01T15:00:26.563Z,979.41
2023-04-01T15:01:26.376Z,979.34
2023-04-01T15:02:26.514Z,979.35
2023-04-01T15:03:26.331Z,979.40
2023-04-01T15:04:26.583Z,979.48
2023-04-01T15:05:26.444Z,979.35
2023-04-01T15:06:26.570Z,979.47
2023-04-01T15:07:26.473Z,979.46
2023-04-01T15:08:26.522Z,979.49
2023-04-01T15:09:26.487Z,979.50
2023-04-01T15:10:26.489Z,979.45
2023-04-01T15:11:26.520Z,979.45
2023-04-01T15:12:26.741Z,979.50
2023-04-01T15:13:26.572Z,979.52
2023-04-01T15:14:26.424Z,979.47
2023-04-01T15:15:26.551Z,979.50
2023-04-01T15:16:26.530Z,979.55
2023-04-01T15:17:26.624Z,979.57
2023-04-01T15:18:26.426Z,979.60
2023-04-01T15:19:26.337Z,979.63
2023-04-01T15:20:27.420Z,979.61
2023-04-01T15:21:27.294Z,979.66
2023-04-01T15:22:26.423Z,979.60
2023-04-01T15:23:26.202Z,979.64
2023-04-01T15:24:26.251Z,979.67
2023-04-01T15:25:26.207Z,979.69
2023-04-01T15:26:26.320Z,979.68
2023-04-01T15:27:26.641Z,979.76
2023-04-01T15:28:26.541Z,979.72
2023-04-01T15:29:26.331Z,979.70
2023-04-01T15:30:26.590Z,979.75
2023-04-01T15:31:26.788Z,979.76
2023-04-01T15:32:26.434Z,979.78
2023-04-01T15:33:26.483Z,979.74
2023-04-01T15:34:26.359Z,979.74
2023-04-01T15:35:26.278Z,979.84
2023-04-01T15:36:26.313Z,979.87
2023-04-01T15:37:26.251Z,979.85
2023-04-01T15:38:27.328Z,979.87
2023-04-01T15:39:26.535Z,979.90
2023-04-01T15:40:26.359Z,979.93
2023-04-01T15:41:26.242Z,979.96
2023-04-01T15:42:26.163Z,979.89
2023-04-01T15:43:26.258Z,979.99
2023-04-01T15:44:26.153Z,979.94
2023-04-01T15:45:26.075Z,979.95
2023-04-01T15:46:27.124Z,980.00
2023-04-01T15:47:26.233Z,979.99
2023-04-01T15:48:26.098Z,979.94
2023-04-01T15:49:26.101Z,979.97
2023-04-01T15:50:26.145Z,980.04
2023-04-01T15:51:26.128Z,980.04
2023-04-01T15:52:26.348Z,980.05
2023-04-01T15:53:26.492Z,980.05
2023-04-01T15:54:26.223Z,980.05
2023-04-01T15:55:26.274Z,980.05
2023-04-01T15:56:26.140Z,980.11
2023-04-01T15:57:26.406Z,980.09
2023-04-01T15:58:26.199Z,980.11
2023-04-01T15:59:26.933Z,980.15
2023-04-01T16:00:26.165Z,980.17
2023-04-01T16:01:26.260Z,980.17
2023-04-01T16:02:26.170Z,980.18
2023-04-01T16:03:26.106Z,980.22
2023-04-01T16:04:26.108Z,980.09
2023-04-01T16:05:26.522Z,980.08
2023-04-01T16:06:26.198Z,980.18
2023-04-01T16:07:25.969Z,980.18
2023-04-01T16:08:25.956Z,980.23
2023-04-01T16:09:25.988Z,980.22
2023-04-01T16:10:59.827Z,980.24
2023-04-01T16:11:25.844Z,980.19
2023-04-01T16:12:25.902Z,980.21
2023-04-01T16:13:26.200Z,980.26
2023-04-01T16:14:30.091Z,980.32
2023-04-01T16:15:25.980Z,980.33
2023-04-01T16:16:26.038Z,980.40
2023-04-01T16:17:26.138Z,980.36
2023-04-01T16:18:25.947Z,980.39
2023-04-01T16:19:26.069Z,980.41
2023-04-01T16:20:26.095Z,980.43
2023-04-01T16:21:26.393Z,980.38
2023-04-01T16:22:25.970Z,980.41
2023-04-01T16:23:26.057Z,980.48
2023-04-01T16:24:26.049Z,980.43
2023-04-01T16:25:25.951Z,980.47
2023-04-01T16:26:26.239Z,980.49
2023-04-01T16:27:25.963Z,980.47
2023-04-01T16:28:26.147Z,980.49
2023-04-01T16:29:25.947Z,980.44
2023-04-01T16:30:25.940Z,980.48
2023-04-01T16:31:25.740Z,980.56
2023-04-01T16:32:25.861Z,980.52
2023-04-01T16:33:25.859Z,980.54
2023-04-01T16:34:25.731Z,980.54
2023-04-01T16:35:25.784Z,980.57
2023-04-01T16:36:26.000Z,980.60
2023-04-01T16:37:25.745Z,980.68
2023-04-01T16:38:25.884Z,980.63
2023-04-01T16:39:25.759Z,980.56
2023-04-01T16:40:25.897Z,980.66
2023-04-01T16:41:25.805Z,980.68
2023-04-01T16:42:25.859Z,980.66
2023-04-01T16:43:26.277Z,980.71
2023-04-01T16:44:25.876Z,980.71
2023-04-01T16:45:25.907Z,980.69
2023-04-01T16:46:25.863Z,980.70
2023-04-01T16:47:26.033Z,980.72
2023-04-01T16:48:25.752Z,980.83
2023-04-01T16:49:26.001Z,980.76
2023-04-01T16:50:26.051Z,980.77
2023-04-01T16:51:26.243Z,980.79
2023-04-01T16:52:25.659Z,980.78
2023-04-01T16:53:25.910Z,980.76
2023-04-01T16:54:25.890Z,980.83
2023-04-01T16:55:26.110Z,980.88
2023-04-01T16:56:26.957Z,980.83
2023-04-01T16:57:26.042Z,980.81
2023-04-01T16:58:25.977Z,980.85
2023-04-01T16:59:26.132Z,980.89
2023-04-01T17:00:26.085Z,980.92
2023-04-01T17:01:26.349Z,980.92
2023-04-01T17:02:26.484Z,980.95
2023-04-01T17:03:25.877Z,980.91
2023-04-01T17:04:25.949Z,980.96
2023-04-01T17:05:26.269Z,980.95
2023-04-01T17:06:25.787Z,981.01
2023-04-01T17:07:25.611Z,980.94
2023-04-01T17:08:25.507Z,980.90
2023-04-01T17:09:25.652Z,981.00
2023-04-01T17:10:26.009Z,981.00
2023-04-01T17:11:25.620Z,981.04
2023-04-01T17:12:25.525Z,981.05
2023-04-01T17:13:25.876Z,981.11
2023-04-01T17:14:25.865Z,981.12
2023-04-01T17:15:25.939Z,981.14
2023-04-01T17:16:25.930Z,981.12
2023-04-01T17:17:26.210Z,981.10
2023-04-01T17:18:26.227Z,981.19
2023-04-01T17:19:26.069Z,981.10
2023-04-01T17:20:27.099Z,981.20
2023-04-01T17:21:26.480Z,981.22
2023-04-01T17:22:26.132Z,981.16
2023-04-01T17:23:26.437Z,981.28
2023-04-01T17:24:26.168Z,981.21
2023-04-01T17:25:26.206Z,981.25
2023-04-01T17:26:26.082Z,981.37
2023-04-01T17:27:26.176Z,981.27
2023-04-01T17:28:25.954Z,981.27
2023-04-01T17:29:26.142Z,981.25
2023-04-01T17:30:26.126Z,981.42
2023-04-01T17:31:25.996Z,981.32
2023-04-01T17:32:26.254Z,981.38
2023-04-01T17:33:26.082Z,981.40
2023-04-01T17:34:26.146Z,981.41
2023-04-01T17:35:26.247Z,981.43
2023-04-01T17:36:26.346Z,981.42
2023-04-01T17:37:26.183Z,981.46
2023-04-01T17:38:26.428Z,981.43
2023-04-01T17:42:19.587Z,981.60
2023-04-01T17:43:21.168Z,981.68
2023-04-01T17:44:21.355Z,981.66
2023-04-01T17:45:21.039Z,981.61
2023-04-01T17:46:21.211Z,981.63
2023-04-01T17:47:21.189Z,981.63
2023-04-01T17:48:21.240Z,981.62
2023-04-01T17:49:21.194Z,981.67
2023-04-01T17:50:21.200Z,981.77
2023-04-01T17:51:20.982Z,981.80
2023-04-01T17:52:20.865Z,981.77
2023-04-01T17:53:21.099Z,981.78
2023-04-01T17:54:21.415Z,981.77
2023-04-01T17:55:21.154Z,981.81
2023-04-01T17:56:21.167Z,981.84
2023-04-01T17:57:22.189Z,981.89
2023-04-01T17:58:21.140Z,981.88
2023-04-01T17:59:20.842Z,981.91
2023-04-01T18:00:22.953Z,981.89
2023-04-01T18:01:21.151Z,981.86
2023-04-01T18:02:21.115Z,982.05
2023-04-01T18:03:21.360Z,981.94
2023-04-01T18:04:21.163Z,981.98
2023-04-01T18:05:21.154Z,981.97
2023-04-01T18:06:20.996Z,982.01
2023-04-01T18:07:21.087Z,981.97
2023-04-01T18:08:20.915Z,982.05
2023-04-01T18:09:21.283Z,982.04
2023-04-01T18:10:20.816Z,982.04
2023-04-01T18:11:21.040Z,982.12
2023-04-01T18:12:20.904Z,982.09
2023-04-01T18:13:20.743Z,982.12
2023-04-01T18:14:20.790Z,982.16
2023-04-01T18:15:21.018Z,982.11
2023-04-01T18:16:20.881Z,982.18
2023-04-01T18:17:20.690Z,982.15
2023-04-01T18:18:20.772Z,982.20
2023-04-01T18:19:21.317Z,982.14
2023-04-01T18:20:21.804Z,982.15
2023-04-01T18:21:21.345Z,982.22
2023-04-01T18:22:20.969Z,982.22
2023-04-01T18:23:20.759Z,982.28
2023-04-01T18:24:20.659Z,982.23
2023-04-01T18:25:20.755Z,982.24
2023-04-01T18:26:20.657Z,982.25
2023-04-01T18:27:22.128Z,982.30
2023-04-01T18:28:20.453Z,982.33
2023-04-01T18:29:20.750Z,982.36
2023-04-01T18:30:20.823Z,982.32
2023-04-01T18:31:20.733Z,982.38
2023-04-01T18:32:21.007Z,982.41
2023-04-01T18:33:20.996Z,982.37
2023-04-01T18:34:20.875Z,982.45
2023-04-01T18:35:20.690Z,982.43
2023-04-01T18:36:20.921Z,982.45
2023-04-01T18:37:21.912Z,982.46
2023-04-01T18:38:20.439Z,982.51
2023-04-01T18:39:20.569Z,982.51
2023-04-01T18:40:20.415Z,982.52
2023-04-01T18:41:20.501Z,982.55
2023-04-01T18:42:22.205Z,982.58
2023-04-01T18:43:21.670Z,982.54
2023-04-01T18:44:20.361Z,982.63
2023-04-01T18:45:21.075Z,982.60
2023-04-01T18:46:20.777Z,982.56
2023-04-01T18:47:20.447Z,982.63
2023-04-01T18:48:20.812Z,982.65
2023-04-01T18:49:20.819Z,982.66
2023-04-01T18:50:20.772Z,982.72
2023-04-01T18:51:20.760Z,982.71
2023-04-01T18:52:21.029Z,982.74
2023-04-01T18:53:20.825Z,982.74
2023-04-01T18:54:20.940Z,982.77
2023-04-01T18:55:20.564Z,982.81
2023-04-01T18:56:21.632Z,982.79
2023-04-01T18:57:20.673Z,982.77
2023-04-01T18:58:20.542Z,982.81
2023-04-01T18:59:20.764Z,982.90
2023-04-01T19:00:20.825Z,982.94
2023-04-01T19:01:20.752Z,982.95
2023-04-01T19:02:21.626Z,982.91
2023-04-01T19:03:20.698Z,982.94
2023-04-01T19:04:20.571Z,982.92
2023-04-01T19:05:20.828Z,982.95
2023-04-01T19:06:20.769Z,983.02
2023-04-01T19:07:20.639Z,983.03
2023-04-01T19:08:20.590Z,983.08
2023-04-01T19:09:20.505Z,983.10
2023-04-01T19:10:20.341Z,983.08
2023-04-01T19:11:20.241Z,983.11
2023-04-01T19:12:20.290Z,983.15
2023-04-01T19:13:20.478Z,983.13
2023-04-01T19:14:20.448Z,983.13
2023-04-01T19:15:20.253Z,983.17
2023-04-01T19:16:20.494Z,983.13
2023-04-01T19:17:20.112Z,983.16
2023-04-01T19:18:20.479Z,983.20
2023-04-01T19:19:20.579Z,983.28
2023-04-01T19:20:20.821Z,983.23
2023-04-01T19:21:20.401Z,983.25
2023-04-01T19:22:20.022Z,983.28
2023-04-01T19:23:20.244Z,983.21
2023-04-01T19:24:20.645Z,983.30
2023-04-01T19:25:20.126Z,983.26
2023-04-01T19:26:20.367Z,983.28
2023-04-01T19:27:20.737Z,983.28
2023-04-01T19:28:20.247Z,983.27
2023-04-01T19:29:20.376Z,983.30
2023-04-01T19:30:20.450Z,983.28
2023-04-01T19:31:20.393Z,983.32
2023-04-01T19:32:20.824Z,983.33
2023-04-01T19:33:20.495Z,983.37
2023-04-01T19:34:20.414Z,983.34
2023-04-01T19:35:20.343Z,983.42
2023-04-01T19:36:20.338Z,983.40
2023-04-01T19:37:20.092Z,983.45
2023-04-01T19:38:20.565Z,983.37
2023-04-01T19:39:20.334Z,983.45
2023-04-01T19:40:20.083Z,983.39
2023-04-01T19:41:20.303Z,983.44
2023-04-01T19:42:20.306Z,983.52
2023-04-01T19:43:20.636Z,983.44
2023-04-01T19:44:20.816Z,983.42
2023-04-01T19:45:20.296Z,983.44
2023-04-01T19:46:20.420Z,983.44
2023-04-01T19:47:20.433Z,983.47
2023-04-01T19:48:20.172Z,983.50
2023-04-01T19:49:20.290Z,983.49
2023-04-01T19:50:20.271Z,983.55
2023-04-01T19:51:20.240Z,983.59
2023-04-01T19:52:20.133Z,983.55
2023-04-01T19:53:20.285Z,983.59
2023-04-01T19:54:21.596Z,983.69
2023-04-01T19:55:20.158Z,983.59
2023-04-01T19:56:20.129Z,983.72
2023-04-01T19:57:20.117Z,983.73
2023-04-01T19:58:20.239Z,983.66
2023-04-01T19:59:20.309Z,983.67
2023-04-01T20:00:21.834Z,983.75
2023-04-01T20:01:20.293Z,983.76
2023-04-01T20:02:20.325Z,983.79
2023-04-01T20:03:20.337Z,983.84
2023-04-01T20:04:20.070Z,983.85
2023-04-01T20:05:20.203Z,983.89
2023-04-01T20:06:20.199Z,983.87
2023-04-01T20:07:21.294Z,983.90
2023-04-01T20:08:19.968Z,983.93
2023-04-01T20:09:20.115Z,983.98
2023-04-01T20:10:20.625Z,983.95
2023-04-01T20:11:20.444Z,983.98
2023-04-01T20:12:20.103Z,983.99
2023-04-01T20:13:20.149Z,984.03
2023-04-01T20:14:20.100Z,983.99
2023-04-01T20:15:20.021Z,983.99
2023-04-01T20:16:20.294Z,984.02
2023-04-01T20:17:20.057Z,984.05
2023-04-01T20:18:20.183Z,984.09
2023-04-01T20:19:20.072Z,984.10
2023-04-01T20:20:19.982Z,984.09
2023-04-01T20:21:20.522Z,984.16
2023-04-01T20:22:20.147Z,984.14
2023-04-01T20:23:20.443Z,984.14
2023-04-01T20:24:20.101Z,984.26
2023-04-01T20:27:41.068Z,984.25
2023-04-01T20:28:42.674Z,984.22
2023-04-01T20:33:38.963Z,984.27
2023-04-01T20:34:38.737Z,984.30
2023-04-01T20:35:38.699Z,984.34
2023-04-01T20:36:38.572Z,984.31
2023-04-01T20:37:38.885Z,984.39
2023-04-01T20:38:38.612Z,984.39
2023-04-01T20:39:38.587Z,984.38
2023-04-01T20:40:38.585Z,984.40
2023-04-01T20:41:38.524Z,984.38
2023-04-01T20:42:38.476Z,984.42
2023-04-01T20:43:38.974Z,984.42
2023-04-01T20:44:38.831Z,984.48
2023-04-01T20:45:38.729Z,984.44
2023-04-01T20:46:38.251Z,984.45
2023-04-01T20:47:38.470Z,984.47
2023-04-01T20:48:38.602Z,984.45
2023-04-01T20:49:38.456Z,984.53
2023-04-01T20:50:38.304Z,984.50
2023-04-01T20:51:38.195Z,984.58
2023-04-01T20:52:38.510Z,984.54
2023-04-01T20:53:38.500Z,984.59
2023-04-01T20:54:38.519Z,984.58
2023-04-01T20:55:38.391Z,984.62
2023-04-01T20:56:38.246Z,984.61
2023-04-01T20:57:38.482Z,984.61
2023-04-01T20:58:38.450Z,984.63
2023-04-01T20:59:39.588Z,984.64
2023-04-01T21:00:38.200Z,984.63
2023-04-01T21:01:39.305Z,984.65
2023-04-01T21:02:38.394Z,984.67
2023-04-01T21:03:38.255Z,984.65
2023-04-01T21:04:38.242Z,984.64
2023-04-01T21:05:38.441Z,984.63
2023-04-01T21:06:38.217Z,984.70
2023-04-01T21:07:38.452Z,984.72
2023-04-01T21:08:39.445Z,984.71
2023-04-01T21:09:38.319Z,984.70
2023-04-01T21:10:38.646Z,984.75
2023-04-01T21:15:35.078Z,984.76
2023-04-01T21:16:36.337Z,984.84
2023-04-01T21:17:36.177Z,984.84
2023-04-01T21:18:36.690Z,984.81
2023-04-01T21:19:37.409Z,984.83
2023-04-01T21:20:36.165Z,984.87
2023-04-01T21:21:35.796Z,984.87
2023-04-01T21:22:36.138Z,984.91
2023-04-01T21:23:36.574Z,984.89
2023-04-01T21:24:36.201Z,984.93
2023-04-01T21:25:36.592Z,984.99
2023-04-01T21:26:36.912Z,984.96
2023-04-01T21:27:35.679Z,985.01
2023-04-01T21:28:36.136Z,985.00
2023-04-01T21:31:34.076Z,985.10
2023-04-01T21:32:35.745Z,985.04
2023-04-01T21:33:36.141Z,985.11
2023-04-01T21:34:35.726Z,985.13
2023-04-01T21:35:36.260Z,985.09
2023-04-01T21:36:35.777Z,985.06
2023-04-01T21:37:35.370Z,985.18
2023-04-01T21:38:36.515Z,985.15
2023-04-01T21:39:35.273Z,985.20
2023-04-01T21:40:35.875Z,985.25
2023-04-01T21:41:35.596Z,985.17
2023-04-01T21:42:35.425Z,985.29
2023-04-01T21:43:36.032Z,985.21
2023-04-01T21:44:35.870Z,985.28
2023-04-01T21:45:35.946Z,985.26
2023-04-01T21:46:35.645Z,985.28
2023-04-01T21:47:35.771Z,985.29
2023-04-01T21:48:35.703Z,985.28
2023-04-01T21:49:35.907Z,985.38
2023-04-01T21:50:35.665Z,985.35
2023-04-01T21:51:35.542Z,985.35
2023-04-01T21:52:35.869Z,985.33
2023-04-01T21:53:35.730Z,985.35
2023-04-01T21:54:35.862Z,985.35
2023-04-01T21:55:35.525Z,985.42
2023-04-01T21:56:35.356Z,985.39
2023-04-01T21:57:35.970Z,985.39
2023-04-01T22:00:57.631Z,985.55
2023-04-01T22:01:58.547Z,985.55
2023-04-01T22:02:58.428Z,985.54
2023-04-01T22:03:58.337Z,985.48
2023-04-01T22:04:58.549Z,985.47
2023-04-01T22:05:58.417Z,985.49
2023-04-01T22:06:58.479Z,985.50
2023-04-01T22:07:58.385Z,985.52
2023-04-01T22:08:58.283Z,985.54
2023-04-01T22:09:58.240Z,985.55
2023-04-01T22:12:59.201Z,985.66
2023-04-01T22:14:00.433Z,985.64
2023-04-01T22:15:00.350Z,985.59
2023-04-01T22:16:00.499Z,985.56
2023-04-01T22:17:00.323Z,985.64
2023-04-01T22:18:00.451Z,985.71
2023-04-01T22:19:00.416Z,985.68
2023-04-01T22:20:00.272Z,985.66
2023-04-01T22:21:00.545Z,985.66
2023-04-01T22:22:01.378Z,985.70
2023-04-01T22:23:00.473Z,985.72
2023-04-01T22:24:00.757Z,985.78
2023-04-01T22:25:00.400Z,985.83
2023-04-01T22:26:00.495Z,985.68
2023-04-01T22:27:00.437Z,985.85
2023-04-01T22:28:00.868Z,985.81
2023-04-01T22:29:00.732Z,985.84
2023-04-01T22:30:00.522Z,985.86
2023-04-01T22:31:00.576Z,985.89
2023-04-01T22:32:00.564Z,985.86
2023-04-01T22:33:00.523Z,985.94
2023-04-01T22:34:01.154Z,985.89
2023-04-01T22:35:00.570Z,985.90
2023-04-01T22:36:00.367Z,986.01
2023-04-01T22:37:00.316Z,985.91
2023-04-01T22:38:00.234Z,985.99
2023-04-01T22:39:00.635Z,985.98
2023-04-01T22:40:00.542Z,985.94
2023-04-01T22:41:00.357Z,986.04
2023-04-01T22:42:00.312Z,986.06
2023-04-01T22:43:00.330Z,986.08
2023-04-01T22:44:00.315Z,986.10
2023-04-01T22:45:00.888Z,985.98
2023-04-01T22:46:00.561Z,986.07
2023-04-01T22:47:00.291Z,986.10
2023-04-01T22:48:00.300Z,986.09
2023-04-01T22:49:00.673Z,986.10
2023-04-01T22:50:00.482Z,986.16
2023-04-01T22:51:00.843Z,986.15
2023-04-01T22:57:53.524Z,986.32
2023-04-01T22:58:55.165Z,986.27
2023-04-01T23:02:51.363Z,986.33
2023-04-01T23:06:43.838Z,986.41
2023-04-01T23:16:46.169Z,986.65
2023-04-01T23:29:41.331Z,986.82
2023-04-01T23:30:42.759Z,986.83
2023-04-01T23:39:35.761Z,986.93
2023-04-01T23:43:27.283Z,987.05
2023-04-01T23:48:39.483Z,987.05
2023-04-01T23:59:50.627Z,987.44
